createdAt,value
2018-10-18T00:00:32.728Z,18.00
2018-10-18T00:03:36.308Z,17.80
2018-10-18T00:06:39.506Z,17.83
2018-10-18T00:09:42.688Z,16.83
2018-10-18T00:12:45.810Z,18.33
2018-10-18T00:15:49.017Z,17.83
2018-10-18T00:18:52.220Z,17.73
2018-10-18T00:21:55.285Z,17.20
2018-10-18T00:24:58.375Z,17.10
2018-10-18T00:28:01.699Z,18.33
2018-10-18T00:31:04.995Z,17.47
2018-10-18T00:34:08.085Z,16.40
2018-10-18T00:37:11.260Z,16.30
2018-10-18T00:40:14.461Z,16.17
2018-10-18T00:43:17.621Z,16.00
2018-10-18T00:46:20.709Z,15.37
2018-10-18T00:49:23.904Z,15.57
2018-10-18T00:52:26.995Z,15.50
2018-10-18T00:55:30.072Z,15.70
2018-10-18T00:58:33.200Z,13.93
2018-10-18T01:01:36.260Z,13.20
2018-10-18T01:04:39.320Z,13.40
2018-10-18T01:07:42.405Z,13.70
2018-10-18T01:10:45.492Z,13.07
2018-10-18T01:13:48.671Z,12.77
2018-10-18T01:16:57.112Z,12.67
2018-10-18T01:20:00.203Z,12.20
2018-10-18T01:23:03.304Z,13.60
2018-10-18T01:26:06.464Z,13.47
2018-10-18T01:29:09.496Z,14.20
2018-10-18T01:32:12.637Z,13.30
2018-10-18T01:35:15.712Z,14.17
2018-10-18T01:38:18.795Z,13.50
2018-10-18T01:41:21.872Z,13.53
2018-10-18T01:44:24.952Z,11.20
2018-10-18T01:47:28.103Z,11.00
2018-10-18T01:50:31.179Z,12.00
2018-10-18T01:53:34.291Z,11.63
2018-10-18T01:56:37.440Z,10.97
2018-10-18T01:59:40.535Z,10.77
2018-10-18T02:02:43.728Z,10.83
2018-10-18T02:05:46.823Z,10.87
2018-10-18T02:08:49.932Z,11.47
2018-10-18T02:11:53.022Z,10.33
2018-10-18T02:14:56.197Z,10.97
2018-10-18T02:17:59.303Z,10.72
2018-10-18T02:21:02.468Z,10.10
2018-10-18T02:24:05.801Z,9.40
2018-10-18T02:27:14.127Z,9.83
2018-10-18T02:30:18.477Z,10.00
2018-10-18T02:33:21.589Z,9.43
2018-10-18T02:36:24.679Z,9.67
2018-10-18T02:39:27.753Z,10.60
2018-10-18T02:42:30.929Z,10.43
2018-10-18T02:45:34.032Z,9.00
2018-10-18T02:48:37.096Z,10.43
2018-10-18T02:51:40.308Z,9.77
2018-10-18T02:54:43.452Z,9.67
2018-10-18T02:57:46.756Z,10.17
2018-10-18T03:00:49.901Z,10.20
2018-10-18T03:03:52.962Z,9.83
2018-10-18T03:06:56.065Z,10.07
2018-10-18T03:09:59.120Z,9.97
2018-10-18T03:13:02.205Z,9.73
2018-10-18T03:16:05.814Z,9.47
2018-10-18T03:19:08.805Z,9.97
2018-10-18T03:22:11.909Z,9.90
2018-10-18T03:25:14.980Z,10.07
2018-10-18T03:28:18.053Z,9.57
2018-10-18T03:31:21.123Z,9.07
2018-10-18T03:34:24.250Z,9.63
2018-10-18T03:37:27.324Z,8.30
2018-10-18T03:40:30.469Z,7.13
2018-10-18T03:43:33.538Z,7.10
2018-10-18T03:46:36.629Z,6.93
2018-10-18T03:49:39.704Z,7.17
2018-10-18T03:52:42.915Z,6.97
2018-10-18T03:55:45.976Z,6.10
2018-10-18T03:58:49.117Z,6.60
2018-10-18T04:01:52.217Z,6.67
2018-10-18T04:04:55.372Z,7.80
2018-10-18T04:07:58.441Z,6.77
2018-10-18T04:11:01.545Z,7.00
2018-10-18T04:14:04.673Z,7.40
2018-10-18T04:17:07.787Z,6.40
2018-10-18T04:20:10.855Z,6.30
2018-10-18T04:23:18.117Z,6.30
2018-10-18T04:26:21.208Z,5.83
2018-10-18T04:29:24.264Z,6.40
2018-10-18T04:32:27.441Z,6.07
2018-10-18T04:35:31.401Z,5.77
2018-10-18T04:38:34.645Z,5.30
2018-10-18T04:41:38.832Z,5.53
2018-10-18T04:44:42.003Z,5.63
2018-10-18T04:47:45.164Z,5.20
2018-10-18T04:50:48.244Z,5.37
2018-10-18T04:53:51.327Z,5.07
2018-10-18T04:56:54.489Z,4.97
2018-10-18T04:59:57.502Z,4.90
2018-10-18T05:03:00.752Z,5.00
2018-10-18T05:06:04.969Z,4.77
2018-10-18T05:09:08.542Z,4.83
2018-10-18T05:12:11.716Z,5.10
2018-10-18T05:15:14.772Z,5.10
2018-10-18T05:18:18.200Z,4.93
2018-10-18T05:21:21.373Z,5.40
2018-10-18T05:24:24.436Z,5.70
2018-10-18T05:27:27.610Z,5.07
2018-10-18T05:30:30.708Z,5.03
2018-10-18T05:33:34.067Z,5.13
2018-10-18T05:36:38.261Z,5.63
2018-10-18T05:39:41.596Z,5.77
2018-10-18T05:42:44.747Z,5.17
2018-10-18T05:45:47.886Z,5.50
2018-10-18T05:48:51.397Z,5.30
2018-10-18T05:51:54.997Z,5.37
2018-10-18T05:54:58.486Z,5.77
2018-10-18T05:58:01.872Z,5.07
2018-10-18T06:01:07.162Z,4.93
2018-10-18T06:04:10.735Z,5.20
2018-10-18T06:07:13.930Z,5.60
2018-10-18T06:10:28.625Z,5.30
2018-10-18T06:13:31.731Z,5.40
2018-10-18T06:16:34.803Z,4.90
2018-10-18T06:19:37.869Z,5.10
2018-10-18T06:22:41.787Z,5.97
2018-10-18T06:25:44.878Z,5.50
2018-10-18T06:28:48.531Z,5.43
2018-10-18T06:31:51.605Z,5.25
2018-10-18T06:34:54.695Z,5.20
2018-10-18T06:37:57.842Z,5.00
2018-10-18T06:41:01.191Z,4.80
2018-10-18T06:44:04.277Z,5.37
2018-10-18T06:47:07.580Z,4.87
2018-10-18T06:50:16.761Z,4.90
2018-10-18T06:53:21.291Z,5.40
2018-10-18T06:56:25.452Z,4.83
2018-10-18T06:59:29.585Z,4.60
2018-10-18T07:02:33.713Z,5.30
2018-10-18T07:05:37.609Z,5.03
2018-10-18T07:08:41.669Z,5.10
2018-10-18T07:11:45.461Z,4.60
2018-10-18T07:14:49.436Z,4.80
2018-10-18T07:17:53.124Z,4.70
2018-10-18T07:20:56.996Z,4.60
2018-10-18T07:24:01.578Z,4.57
2018-10-18T07:27:06.579Z,4.60
2018-10-18T07:30:11.522Z,4.67
2018-10-18T07:33:15.680Z,4.30
2018-10-18T07:36:18.824Z,4.50
2018-10-18T07:39:22.985Z,4.53
2018-10-18T07:42:26.924Z,4.27
2018-10-18T07:45:31.644Z,4.40
2018-10-18T07:48:35.684Z,4.53
2018-10-18T07:51:46.964Z,4.58
2018-10-18T07:54:50.201Z,3.93
2018-10-18T07:57:54.584Z,4.30
2018-10-18T08:00:58.757Z,4.03
2018-10-18T08:04:02.472Z,4.10
2018-10-18T08:07:07.647Z,3.93
2018-10-18T08:10:14.215Z,3.80
2018-10-18T08:13:17.368Z,3.77
2018-10-18T08:16:20.429Z,3.50
2018-10-18T08:19:23.545Z,3.30
2018-10-18T08:22:26.733Z,3.40
2018-10-18T08:25:30.002Z,3.17
2018-10-18T08:28:33.153Z,3.20
2018-10-18T08:31:37.243Z,3.70
2018-10-18T08:34:39.840Z,3.60
2018-10-18T08:37:43.025Z,3.47
2018-10-18T08:40:46.094Z,2.97
2018-10-18T08:43:49.174Z,3.60
2018-10-18T08:46:52.319Z,3.30
2018-10-18T08:49:55.380Z,3.20
2018-10-18T08:52:58.508Z,3.27
2018-10-18T08:56:02.776Z,3.47
2018-10-18T08:59:06.902Z,3.67
2018-10-18T09:02:10.608Z,3.77
2018-10-18T09:05:14.757Z,3.93
2018-10-18T09:08:18.708Z,3.33
2018-10-18T09:11:21.944Z,3.13
2018-10-18T09:14:26.254Z,3.30
2018-10-18T09:17:30.275Z,3.83
2018-10-18T09:20:34.723Z,3.37
2018-10-18T09:23:38.723Z,3.83
2018-10-18T09:26:42.863Z,3.50
2018-10-18T09:29:47.325Z,3.00
2018-10-18T09:32:50.503Z,3.33
2018-10-18T09:35:53.937Z,3.50
2018-10-18T09:38:57.780Z,3.63
2018-10-18T09:42:01.196Z,3.57
2018-10-18T09:45:05.704Z,3.50
2018-10-18T09:48:10.414Z,4.00
2018-10-18T09:51:13.928Z,3.67
2018-10-18T09:54:18.878Z,4.07
2018-10-18T09:57:22.893Z,3.80
2018-10-18T10:00:32.162Z,3.67
2018-10-18T10:03:36.717Z,3.60
2018-10-18T10:06:41.679Z,3.77
2018-10-18T10:09:47.256Z,4.40
2018-10-18T10:12:50.338Z,4.03
2018-10-18T10:15:53.416Z,3.97
2018-10-18T10:18:56.494Z,3.70
2018-10-18T10:21:59.624Z,3.63
2018-10-18T10:25:02.763Z,4.80
2018-10-18T10:28:05.793Z,4.87
2018-10-18T10:31:09.515Z,4.43
2018-10-18T10:34:12.666Z,4.40
2018-10-18T10:37:15.985Z,4.03
2018-10-18T10:40:19.227Z,4.27
2018-10-18T10:43:22.356Z,4.87
2018-10-18T10:46:25.535Z,4.60
2018-10-18T10:49:28.731Z,4.57
2018-10-18T10:52:31.873Z,3.73
2018-10-18T10:55:35.055Z,4.00
2018-10-18T10:58:38.148Z,3.80
2018-10-18T11:01:41.346Z,3.50
2018-10-18T11:04:44.449Z,3.83
2018-10-18T11:07:47.588Z,3.33
2018-10-18T11:10:50.673Z,3.60
2018-10-18T11:13:53.834Z,3.30
2018-10-18T11:16:56.883Z,3.07
2018-10-18T11:19:59.988Z,3.50
2018-10-18T11:23:03.001Z,3.30
2018-10-18T11:26:06.122Z,3.30
2018-10-18T11:29:09.165Z,3.00
2018-10-18T11:32:12.342Z,2.67
2018-10-18T11:35:15.472Z,2.90
2018-10-18T11:41:51.369Z,2.80
2018-10-18T11:44:54.879Z,2.57
2018-10-18T11:47:57.937Z,2.50
2018-10-18T11:51:00.996Z,2.67
2018-10-18T11:54:04.066Z,2.50
2018-10-18T11:57:07.783Z,2.30
2018-10-18T12:00:17.449Z,2.37
2018-10-18T12:03:20.527Z,2.07
2018-10-18T12:06:23.616Z,2.10
2018-10-18T12:09:26.730Z,2.43
2018-10-18T12:12:29.950Z,2.17
2018-10-18T12:15:33.065Z,2.10
2018-10-18T12:18:36.166Z,2.03
2018-10-18T12:21:39.308Z,1.90
2018-10-18T12:24:42.513Z,2.10
2018-10-18T12:27:45.938Z,2.20
2018-10-18T12:30:50.499Z,2.23
2018-10-18T12:33:54.855Z,2.37
2018-10-18T12:36:58.859Z,2.13
2018-10-18T12:40:02.889Z,1.80
2018-10-18T12:43:06.555Z,1.90
2018-10-18T12:46:11.128Z,2.00
2018-10-18T12:49:14.214Z,2.27
2018-10-18T12:52:17.290Z,1.93
2018-10-18T12:55:20.368Z,1.83
2018-10-18T12:58:23.428Z,1.70
2018-10-18T13:01:26.536Z,2.00
2018-10-18T13:04:29.584Z,1.87
2018-10-18T13:07:32.655Z,1.80
2018-10-18T13:10:36.546Z,1.98
2018-10-18T13:13:39.660Z,2.17
2018-10-18T13:16:45.904Z,1.80
2018-10-18T13:19:49.314Z,2.10
2018-10-18T13:22:52.460Z,1.60
2018-10-18T13:25:55.701Z,1.80
2018-10-18T13:28:58.718Z,2.10
2018-10-18T13:32:01.962Z,1.73
2018-10-18T13:35:05.340Z,64.35
2018-10-18T13:38:08.514Z,52.60
2018-10-18T13:41:11.527Z,12.23
2018-10-18T13:44:14.808Z,3.37
2018-10-18T13:47:17.871Z,2.80
2018-10-18T13:50:20.916Z,2.53
2018-10-18T13:53:23.975Z,1.90
2018-10-18T13:56:27.027Z,2.30
2018-10-18T14:01:50.412Z,2.10
2018-10-18T14:04:53.656Z,2.10
2018-10-18T14:07:57.467Z,2.23
2018-10-18T14:11:01.609Z,2.43
2018-10-18T14:14:05.261Z,1.90
2018-10-18T14:17:12.700Z,2.10
2018-10-18T14:20:15.677Z,1.80
2018-10-18T14:23:18.972Z,1.93
2018-10-18T14:26:22.150Z,1.90
2018-10-18T14:29:25.242Z,2.20
2018-10-18T14:32:28.580Z,1.70
2018-10-18T14:35:31.655Z,1.60
2018-10-18T14:38:34.781Z,2.03
2018-10-18T14:41:38.304Z,2.10
2018-10-18T14:44:41.593Z,1.90
2018-10-18T14:47:44.589Z,2.10
2018-10-18T14:50:47.741Z,1.80
2018-10-18T14:53:50.957Z,2.07
2018-10-18T14:56:54.097Z,2.40
2018-10-18T14:59:57.174Z,2.03
2018-10-18T15:03:00.524Z,2.60
2018-10-18T15:06:03.587Z,2.07
2018-10-18T15:09:08.098Z,2.30
2018-10-18T15:12:11.251Z,2.00
2018-10-18T15:15:14.814Z,1.83
2018-10-18T15:18:17.959Z,2.30
2018-10-18T15:21:21.072Z,1.97
2018-10-18T15:24:24.155Z,1.93
2018-10-18T15:27:27.325Z,1.80
2018-10-18T15:30:30.271Z,1.60
2018-10-18T15:33:33.346Z,2.10
2018-10-18T15:36:36.468Z,1.87
2018-10-18T15:39:40.209Z,1.70
2018-10-18T15:42:43.149Z,1.60
2018-10-18T15:45:49.369Z,1.73
2018-10-18T15:48:55.031Z,1.70
2018-10-18T15:51:58.140Z,1.70
2018-10-18T15:55:01.197Z,1.70
2018-10-18T15:58:04.367Z,1.77
2018-10-18T16:01:14.653Z,1.80
2018-10-18T16:04:17.819Z,1.50
2018-10-18T16:07:20.866Z,1.80
2018-10-18T16:10:23.968Z,1.67
2018-10-18T16:13:27.045Z,1.53
2018-10-18T16:16:30.044Z,1.63
2018-10-18T16:19:33.207Z,1.60
2018-10-18T16:22:36.448Z,1.40
2018-10-18T16:25:39.484Z,1.70
2018-10-18T16:28:42.597Z,1.57
2018-10-18T16:31:45.627Z,1.70
2018-10-18T16:34:48.701Z,1.50
2018-10-18T16:37:55.776Z,1.60
2018-10-18T16:40:58.973Z,1.50
2018-10-18T16:44:02.151Z,1.40
2018-10-18T16:47:05.447Z,1.60
2018-10-18T16:50:09.107Z,1.67
2018-10-18T16:53:12.203Z,1.60
2018-10-18T16:56:15.375Z,1.87
2018-10-18T16:59:18.449Z,1.93
2018-10-18T17:02:21.604Z,1.90
2018-10-18T17:05:24.679Z,2.30
2018-10-18T17:08:27.744Z,2.30
2018-10-18T17:11:30.935Z,2.40
2018-10-18T17:14:33.908Z,3.73
2018-10-18T17:17:37.278Z,3.90
2018-10-18T17:20:40.336Z,3.60
2018-10-18T17:23:43.512Z,3.00
2018-10-18T17:26:46.664Z,2.73
2018-10-18T17:29:49.820Z,2.83
2018-10-18T17:32:52.988Z,2.43
2018-10-18T17:35:56.193Z,2.20
2018-10-18T17:38:59.329Z,2.20
2018-10-18T17:42:02.580Z,2.47
2018-10-18T17:45:07.159Z,2.53
2018-10-18T17:48:10.370Z,2.20
2018-10-18T17:51:13.484Z,2.30
2018-10-18T17:54:16.783Z,2.20
2018-10-18T17:57:20.114Z,2.30
2018-10-18T18:00:23.267Z,2.60
2018-10-18T18:03:26.381Z,2.40
2018-10-18T18:06:29.769Z,2.47
2018-10-18T18:09:32.637Z,2.63
2018-10-18T18:12:36.018Z,2.80
2018-10-18T18:15:39.242Z,2.70
2018-10-18T18:18:48.936Z,2.70
2018-10-18T18:21:52.303Z,3.00
2018-10-18T18:24:55.383Z,3.17
2018-10-18T18:27:58.695Z,2.70
2018-10-18T18:31:01.991Z,2.90
2018-10-18T18:34:05.043Z,3.67
2018-10-18T18:37:08.207Z,3.37
2018-10-18T18:40:11.481Z,3.23
2018-10-18T18:43:14.936Z,3.40
2018-10-18T18:46:18.399Z,3.10
2018-10-18T18:49:21.673Z,3.33
2018-10-18T18:52:24.741Z,3.30
2018-10-18T18:55:26.983Z,3.57
2018-10-18T18:58:30.104Z,3.10
2018-10-18T19:01:33.157Z,3.33
2018-10-18T19:04:36.208Z,3.40
2018-10-18T19:07:39.315Z,3.27
2018-10-18T19:10:42.399Z,3.53
2018-10-18T19:13:44.552Z,2.90
2018-10-18T19:16:47.617Z,3.23
2018-10-18T19:19:50.704Z,2.90
2018-10-18T19:22:53.809Z,3.00
2018-10-18T19:25:56.868Z,3.03
2018-10-18T19:28:59.852Z,2.70
2018-10-18T19:32:03.135Z,3.00
2018-10-18T19:35:06.155Z,2.90
2018-10-18T19:38:09.326Z,3.20
2018-10-18T19:41:12.484Z,3.00
2018-10-18T19:44:15.692Z,2.83
2018-10-18T19:47:18.808Z,3.17
2018-10-18T19:50:21.959Z,3.00
2018-10-18T19:53:25.031Z,2.80
2018-10-18T19:56:28.146Z,2.90
2018-10-18T19:59:31.483Z,3.27
2018-10-18T20:02:34.514Z,2.93
2018-10-18T20:05:37.555Z,2.93
2018-10-18T20:08:40.608Z,3.30
2018-10-18T20:11:43.673Z,3.10
2018-10-18T20:14:46.947Z,3.37
2018-10-18T20:17:50.023Z,3.10
2018-10-18T20:20:53.124Z,3.20
2018-10-18T20:23:56.209Z,2.90
2018-10-18T20:26:59.251Z,3.90
2018-10-18T20:30:02.331Z,4.40
2018-10-18T20:33:05.714Z,4.07
2018-10-18T20:36:08.780Z,4.43
2018-10-18T20:39:12.174Z,4.73
2018-10-18T20:42:15.243Z,4.00
2018-10-18T20:45:23.808Z,4.10
2018-10-18T20:48:26.932Z,9.50
2018-10-18T20:51:30.936Z,17.90
2018-10-18T20:54:36.552Z,40.80
2018-10-18T20:57:39.632Z,41.07
2018-10-18T21:00:42.719Z,17.60
2018-10-18T21:03:46.873Z,13.03
2018-10-18T21:06:49.915Z,9.57
2018-10-18T21:09:53.100Z,10.60
2018-10-18T21:12:56.260Z,8.60
2018-10-18T21:15:59.308Z,6.30
2018-10-18T21:19:02.436Z,5.53
2018-10-18T21:22:05.901Z,5.90
2018-10-18T21:25:09.347Z,5.47
2018-10-18T21:28:12.415Z,4.83
2018-10-18T21:31:15.489Z,4.93
2018-10-18T21:34:18.592Z,438.30
2018-10-18T21:37:21.642Z,351.32
2018-10-18T21:40:24.714Z,224.10
2018-10-18T21:43:27.819Z,168.93
2018-10-18T21:46:30.891Z,133.73
2018-10-18T21:49:34.005Z,114.50
2018-10-18T21:52:37.068Z,96.13
2018-10-18T21:55:40.215Z,82.97
2018-10-18T21:58:43.492Z,72.13
2018-10-18T22:01:47.579Z,62.50
2018-10-18T22:04:50.724Z,53.90
2018-10-18T22:07:53.816Z,47.57
2018-10-18T22:10:57.172Z,41.53
2018-10-18T22:14:00.268Z,36.87
2018-10-18T22:17:04.357Z,33.73
2018-10-18T22:20:08.300Z,28.13
2018-10-18T22:23:11.485Z,26.33
2018-10-18T22:26:14.504Z,32.90
2018-10-18T22:29:17.651Z,41.47
2018-10-18T22:32:20.644Z,49.45
2018-10-18T22:35:23.768Z,39.60
2018-10-18T22:38:26.800Z,34.90
2018-10-18T22:41:29.875Z,31.13
2018-10-18T22:44:32.916Z,28.87
2018-10-18T22:47:36.028Z,26.17
2018-10-18T22:50:39.143Z,23.40
2018-10-18T22:53:42.185Z,21.73
2018-10-18T22:56:45.219Z,21.37
2018-10-18T22:59:48.341Z,20.70
2018-10-18T23:02:51.371Z,18.73
2018-10-18T23:05:55.512Z,17.90
2018-10-18T23:08:58.542Z,16.27
2018-10-18T23:12:01.648Z,15.63
2018-10-18T23:15:06.100Z,14.07
2018-10-18T23:18:10.148Z,14.23
2018-10-18T23:21:13.305Z,13.30
2018-10-18T23:24:16.258Z,12.90
2018-10-18T23:27:18.524Z,11.70
2018-10-18T23:30:21.560Z,11.53
2018-10-18T23:33:24.715Z,11.40
2018-10-18T23:36:27.782Z,9.37
2018-10-18T23:39:31.321Z,9.20
2018-10-18T23:42:34.427Z,8.33
2018-10-18T23:45:37.530Z,7.97
2018-10-18T23:48:40.624Z,8.30
2018-10-18T23:51:43.684Z,7.73
2018-10-18T23:54:46.753Z,7.33
2018-10-18T23:57:49.796Z,6.17
